Terminal Aerodrome Forecast
Issued by NWS Cleveland, OH

Home | Current Version | Previous Version | Graphics & Text | Print | Product List | Glossary On
Versions: 1 2 3 4 5 6 7 8 9 10 11 12 13 14 15 16 17 18 19 20 21 22
000
FTUS41 KCLE 290800 AAA
TAFYNG
TAF AMD
KYNG 290809Z 2908/3006 VRB03KT 1/2SM FG BKN001
      TEMPO 2909/2913 1/4SM FG OVC001
     FM291330 25003KT 3SM BR SCT002 BKN250
     FM291430 28005KT P6SM SCT040
     FM292300 VRB03KT P6SM SKC=

USA.gov is the U.S. government's official web portal to all federal, state and local government web resources and services.